Time;durP1;ratioP1;P1;durP2;ratioP2;P2;SDS_P1;SDS_P2;PMS_P1;PMS_P2;Temp;Humidity;BMP_temperature;BMP_pressure;BME280_temperature;BME280_humidity;BME280_pressure;Samples;Min_cycle;Max_cycle;Signal;HPM_P1;HPM_P2
2023/09/20 00:01:16;;;;;;;0.20;0.20;;;;;;;14.96;67.20;99794.88;5009672;28;20050;-70
2023/09/20 00:03:45;;;;;;;0.20;0.20;;;;;;;14.95;67.26;99786.91;5011674;28;20046;-71
2023/09/20 00:06:11;;;;;;;0.20;0.20;;;;;;;14.95;67.04;99793.25;5012125;28;20096;-70
2023/09/20 00:08:37;;;;;;;0.20;0.20;;;;;;;14.95;67.29;99784.97;5003173;28;20581;-69
2023/09/20 00:11:05;;;;;;;0.20;0.20;;;;;;;14.89;67.05;99780.69;5002809;28;20050;-69
2023/09/20 00:13:33;;;;;;;0.20;0.20;;;;;;;14.97;66.68;99776.41;5002722;28;20038;-70
2023/09/20 00:16:01;;;;;;;0.13;0.13;;;;;;;14.88;66.67;99763.38;5002476;28;20513;-69
2023/09/20 00:18:30;;;;;;;0.20;0.20;;;;;;;14.97;66.50;99779.97;5003557;28;20440;-69
2023/09/20 00:21:01;;;;;;;0.10;0.10;;;;;;;14.95;66.88;99784.16;5007320;28;20045;-69
2023/09/20 00:23:27;;;;;;;0.10;0.10;;;;;;;14.92;66.90;99780.09;5003891;28;20436;-69
2023/09/20 00:25:54;;;;;;;0.20;0.20;;;;;;;14.88;67.20;99790.06;5009014;28;20144;-70
2023/09/20 00:28:20;;;;;;;0.20;0.20;;;;;;;14.86;67.20;99782.13;4985295;28;20093;-69
2023/09/20 00:30:47;;;;;;;0.20;0.20;;;;;;;14.83;67.27;99785.50;5001740;28;20045;-70
2023/09/20 00:33:14;;;;;;;0.10;0.10;;;;;;;14.80;67.70;99780.56;5004093;28;20049;-70
2023/09/20 00:35:40;;;;;;;0.20;0.20;;;;;;;14.74;67.93;99777.09;4986495;28;20048;-70
2023/09/20 00:38:08;;;;;;;0.20;0.20;;;;;;;14.66;68.35;99786.03;5002102;28;20046;-70
2023/09/20 00:40:37;;;;;;;0.15;0.15;;;;;;;14.64;68.32;99787.44;5003845;28;20428;-70
2023/09/20 00:43:06;;;;;;;0.20;0.20;;;;;;;14.64;68.57;99793.78;5007700;28;20050;-70
2023/09/20 00:45:33;;;;;;;0.22;0.20;;;;;;;14.60;68.76;99795.50;5009514;28;20046;-70
2023/09/20 00:48:02;;;;;;;0.20;0.20;;;;;;;14.58;68.38;99787.53;4986451;28;20052;-70
2023/09/20 00:50:31;;;;;;;0.10;0.10;;;;;;;14.55;68.63;99793.66;5004464;28;20537;-69
2023/09/20 00:53:00;;;;;;;0.20;0.20;;;;;;;14.52;68.95;99796.19;5004671;28;20046;-71
2023/09/20 00:55:32;;;;;;;0.20;0.20;;;;;;;14.35;69.11;99764.56;4985285;28;20053;-72
2023/09/20 00:58:04;;;;;;;0.20;0.20;;;;;;;14.39;69.24;99773.81;4996169;28;20045;-70
2023/09/20 01:00:33;;;;;;;0.20;0.20;;;;;;;14.38;69.46;99793.41;4971818;28;20537;-70
2023/09/20 01:03:01;;;;;;;0.20;0.20;;;;;;;14.34;69.76;99793.19;5001061;28;20068;-71
2023/09/20 01:05:28;;;;;;;0.10;0.10;;;;;;;14.29;70.09;99788.56;5003268;28;20054;-71
2023/09/20 01:07:55;;;;;;;;;;;;;;;14.26;70.14;99780.94;5008253;28;20046;-70
2023/09/20 01:10:25;;;;;;;0.10;0.10;;;;;;;14.23;69.98;99777.94;5002751;28;19930;-70
2023/09/20 01:12:55;;;;;;;0.20;0.20;;;;;;;14.20;70.20;99787.59;5006836;28;20050;-70
2023/09/20 01:15:21;;;;;;;0.10;0.10;;;;;;;14.19;70.40;99780.47;4988740;28;20054;-70
2023/09/20 01:17:49;;;;;;;0.15;0.15;;;;;;;14.08;70.65;99779.81;5006015;28;20141;-70
2023/09/20 01:20:20;;;;;;;0.17;0.17;;;;;;;14.13;70.84;99781.69;5002479;28;20062;-70
2023/09/20 01:22:50;;;;;;;0.20;0.20;;;;;;;14.04;70.89;99782.34;5002606;28;20038;-69
2023/09/20 01:25:24;;;;;;;0.10;0.10;;;;;;;14.03;71.50;99780.72;5004383;28;20056;-69
2023/09/20 01:27:55;;;;;;;0.15;0.15;;;;;;;13.91;71.48;99769.38;5005365;28;20054;-69
2023/09/20 01:30:24;;;;;;;0.10;0.10;;;;;;;14.00;71.53;99789.56;5007050;28;20472;-70
2023/09/20 01:32:53;;;;;;;0.20;0.20;;;;;;;14.01;71.33;99791.19;5002004;28;20144;-70
2023/09/20 01:35:19;;;;;;;0.20;0.20;;;;;;;13.98;71.51;99788.25;5005558;28;20076;-70
2023/09/20 01:37:46;;;;;;;0.10;0.10;;;;;;;13.97;71.56;99784.66;5000766;28;20042;-70
2023/09/20 01:40:16;;;;;;;0.20;0.20;;;;;;;13.95;71.54;99788.81;5001248;28;20377;-69
2023/09/20 01:42:43;;;;;;;0.10;0.10;;;;;;;13.91;71.57;99783.13;5001999;28;20045;-68
2023/09/20 01:45:16;;;;;;;0.13;0.13;;;;;;;13.89;71.98;99786.16;4994842;28;20048;-70
2023/09/20 01:47:47;;;;;;;0.10;0.10;;;;;;;13.86;71.87;99777.69;5001253;28;20046;-69
2023/09/20 01:50:24;;;;;;;0.20;0.20;;;;;;;13.84;71.89;99785.41;5005785;28;20475;-68
2023/09/20 01:52:52;;;;;;;0.20;0.20;;;;;;;13.75;71.94;99772.34;5007922;28;20053;-70
2023/09/20 01:55:21;;;;;;;0.10;0.10;;;;;;;13.82;72.18;99785.72;5003458;28;20053;-69
2023/09/20 01:57:51;;;;;;;0.10;0.10;;;;;;;13.82;72.09;99782.16;5001317;28;20038;-68
2023/09/20 02:00:22;;;;;;;0.10;0.10;;;;;;;13.81;71.96;99789.56;4964372;28;20148;-70
2023/09/20 02:02:51;;;;;;;0.10;0.10;;;;;;;13.81;72.11;99783.25;5001315;28;20080;-70
2023/09/20 02:05:18;;;;;;;0.10;0.10;;;;;;;13.75;72.28;99777.84;4982138;28;20135;-69
2023/09/20 02:07:45;;;;;;;;;;;;;;;13.72;72.61;99783.13;5004467;28;20136;-69
2023/09/20 02:10:11;;;;;;;0.10;0.10;;;;;;;13.70;72.42;99774.34;5000865;28;19929;-68
2023/09/20 02:12:40;;;;;;;0.10;0.10;;;;;;;13.67;72.77;99778.50;4998894;28;20050;-68
2023/09/20 02:15:10;;;;;;;0.10;0.10;;;;;;;13.55;72.91;99764.38;5001806;28;20085;-69
2023/09/20 02:17:40;;;;;;;0.20;0.20;;;;;;;13.63;73.01;99782.13;4997782;28;20044;-71
2023/09/20 02:20:10;;;;;;;0.10;0.10;;;;;;;13.59;72.71;99779.19;4999975;28;20358;-70
2023/09/20 02:22:38;;;;;;;0.20;0.20;;;;;;;13.59;72.67;99776.44;5001918;28;20050;-69
2023/09/20 02:25:26;;;;;;;0.20;0.20;;;;;;;13.60;72.87;99784.38;4999823;28;20136;-71
2023/09/20 02:27:57;;;;;;;;;;;;;;;13.57;72.90;99779.47;4989874;28;20050;-70
2023/09/20 02:30:35;;;;;;;0.10;0.10;;;;;;;13.52;73.03;99779.53;5005336;28;19931;-70
2023/09/20 02:33:05;;;;;;;0.15;0.15;;;;;;;13.46;73.27;99776.03;4999897;28;20417;-71
2023/09/20 02:35:33;;;;;;;0.13;0.13;;;;;;;13.41;73.54;99770.56;5001525;28;20928;-70
2023/09/20 02:37:59;;;;;;;;;;;;;;;13.42;73.60;99771.41;5000368;28;20096;-70
2023/09/20 02:40:26;;;;;;;0.10;0.10;;;;;;;13.40;73.60;99771.69;5003561;28;20423;-70
2023/09/20 02:42:59;;;;;;;0.20;0.20;;;;;;;13.36;73.51;99773.38;4965965;28;20052;-70
2023/09/20 02:45:33;;;;;;;0.10;0.10;;;;;;;13.32;73.99;99775.91;5002907;28;20417;-70
2023/09/20 02:48:05;;;;;;;0.10;0.10;;;;;;;13.29;73.93;99776.50;5002085;28;20173;-70
2023/09/20 02:50:31;;;;;;;0.10;0.10;;;;;;;13.30;74.15;99774.56;5003135;28;20412;-71
2023/09/20 02:52:58;;;;;;;0.10;0.10;;;;;;;13.29;74.16;99775.69;5001527;28;20037;-71
2023/09/20 02:55:27;;;;;;;0.20;0.20;;;;;;;13.29;74.25;99781.19;5000267;28;20301;-70
2023/09/20 02:57:55;;;;;;;0.10;0.10;;;;;;;13.27;74.11;99786.16;5007754;28;20531;-69
2023/09/20 03:00:33;;;;;;;0.10;0.10;;;;;;;13.28;74.24;99774.84;5005214;28;20080;-69
2023/09/20 03:03:01;;;;;;;0.10;0.10;;;;;;;13.27;73.73;99770.47;4993262;28;20508;-69
2023/09/20 03:05:30;;;;;;;0.10;0.10;;;;;;;13.28;73.89;99776.81;5008265;28;20038;-69
2023/09/20 03:07:56;;;;;;;0.10;0.10;;;;;;;13.23;74.28;99763.13;5005775;28;20596;-69
2023/09/20 03:10:24;;;;;;;0.10;0.10;;;;;;;13.25;74.22;99769.13;5006753;28;20473;-70
2023/09/20 03:12:52;;;;;;;0.20;0.20;;;;;;;13.25;74.09;99782.84;5001778;28;20053;-69
2023/09/20 03:15:23;;;;;;;0.20;0.20;;;;;;;13.25;74.04;99780.09;4988534;28;20406;-71
2023/09/20 03:17:53;;;;;;;0.20;0.20;;;;;;;13.22;74.17;99766.97;5002289;28;20050;-71
2023/09/20 03:20:23;;;;;;;0.20;0.20;;;;;;;13.22;74.16;99776.03;5004057;28;20054;-71
2023/09/20 03:22:54;;;;;;;0.10;0.10;;;;;;;13.23;73.78;99780.41;4972626;28;20499;-70
2023/09/20 03:25:21;;;;;;;0.13;0.13;;;;;;;13.21;74.22;99770.84;5005392;28;20060;-70
2023/09/20 03:27:49;;;;;;;0.10;0.10;;;;;;;13.19;74.13;99773.88;5003490;28;20050;-70
2023/09/20 03:30:16;;;;;;;;;;;;;;;13.19;74.42;99777.44;5003891;28;20042;-70
2023/09/20 03:32:44;;;;;;;0.10;0.10;;;;;;;13.15;73.92;99764.59;5003986;28;19925;-70
2023/09/20 03:35:12;;;;;;;0.10;0.10;;;;;;;13.15;74.12;99759.94;4988680;28;20132;-70
2023/09/20 03:37:41;;;;;;;0.20;0.20;;;;;;;13.19;74.29;99774.69;5008562;28;20049;-71
2023/09/20 03:40:28;;;;;;;0.20;0.20;;;;;;;13.19;74.46;99779.38;4997206;28;20519;-70
2023/09/20 03:42:55;;;;;;;0.17;0.17;;;;;;;13.12;74.51;99762.44;5003400;28;20054;-71
2023/09/20 03:45:21;;;;;;;0.10;0.10;;;;;;;13.18;74.27;99774.97;5006252;28;20578;-71
2023/09/20 03:47:53;;;;;;;0.20;0.20;;;;;;;13.02;74.01;99736.72;5003083;28;20057;-71
2023/09/20 03:50:22;;;;;;;0.20;0.20;;;;;;;13.20;73.83;99767.28;4984162;28;20046;-70
2023/09/20 03:52:49;;;;;;;0.20;0.20;;;;;;;13.24;74.42;99768.31;5007608;28;20065;-70
2023/09/20 03:55:25;;;;;;;0.20;0.20;;;;;;;13.11;73.88;99739.66;5005415;28;20108;-71
2023/09/20 03:57:52;;;;;;;0.20;0.20;;;;;;;13.28;73.99;99771.31;5006674;28;20183;-71
2023/09/20 04:00:24;;;;;;;0.20;0.20;;;;;;;13.33;73.74;99769.28;4985249;28;20544;-71
2023/09/20 04:02:54;;;;;;;0.20;0.20;;;;;;;13.34;73.76;99767.38;5002995;28;20048;-70
2023/09/20 04:05:20;;;;;;;0.20;0.20;;;;;;;13.37;73.79;99768.72;5011896;28;20516;-71
2023/09/20 04:07:47;;;;;;;0.20;0.20;;;;;;;13.40;73.41;99779.91;5004472;28;20046;-71
2023/09/20 04:10:18;;;;;;;0.20;0.20;;;;;;;13.41;73.15;99778.81;5001045;28;20057;-71
2023/09/20 04:12:47;;;;;;;0.20;0.20;;;;;;;13.46;72.93;99783.44;4986821;28;20140;-70
2023/09/20 04:15:15;;;;;;;0.20;0.20;;;;;;;13.47;72.96;99788.66;5004638;28;20037;-69
2023/09/20 04:17:41;;;;;;;;;;;;;;;13.52;72.86;99781.47;4989067;28;20148;-71
2023/09/20 04:20:11;;;;;;;0.20;0.20;;;;;;;13.55;72.31;99789.09;5002906;28;20067;-71
2023/09/20 04:22:38;;;;;;;0.20;0.20;;;;;;;13.59;71.87;99788.22;4998342;28;20096;-71
2023/09/20 04:25:05;;;;;;;0.20;0.20;;;;;;;13.61;72.13;99783.25;4988619;28;20050;-70
2023/09/20 04:27:34;;;;;;;0.20;0.20;;;;;;;13.67;71.62;99783.19;4988593;28;20045;-68
2023/09/20 04:30:01;;;;;;;0.20;0.20;;;;;;;13.73;71.33;99782.00;5002321;28;20054;-70
2023/09/20 04:32:33;;;;;;;0.20;0.20;;;;;;;13.79;71.21;99780.00;5002171;28;20050;-69
2023/09/20 04:35:02;;;;;;;0.20;0.20;;;;;;;13.85;70.99;99784.28;4984654;28;20042;-70
2023/09/20 04:37:32;;;;;;;0.20;0.20;;;;;;;13.89;70.81;99782.59;5000800;28;20592;-69
2023/09/20 04:39:58;;;;;;;0.20;0.20;;;;;;;13.96;70.23;99780.28;4995880;28;20541;-69
2023/09/20 04:42:26;;;;;;;0.20;0.20;;;;;;;14.04;69.93;99790.59;5000546;28;20611;-69
2023/09/20 04:44:52;;;;;;;0.20;0.20;;;;;;;14.11;69.64;99795.72;5003640;28;20057;-69
2023/09/20 04:47:19;;;;;;;0.20;0.20;;;;;;;14.06;69.49;99770.25;5006287;28;20054;-71
2023/09/20 04:49:47;;;;;;;0.20;0.20;;;;;;;14.16;69.40;99781.09;5004125;28;20054;-70
2023/09/20 04:52:15;;;;;;;0.20;0.20;;;;;;;14.24;68.41;99799.66;4655627;28;10000624;-70
2023/09/20 04:54:44;;;;;;;0.30;0.30;;;;;;;14.30;68.45;99784.69;4998856;28;20061;-70
2023/09/20 04:57:14;;;;;;;0.30;0.30;;;;;;;14.37;68.04;99792.56;4998420;28;20156;-70
2023/09/20 04:59:41;;;;;;;0.20;0.20;;;;;;;14.42;67.81;99781.47;5004181;28;20052;-70
2023/09/20 05:02:09;;;;;;;;;;;;;;;14.50;67.88;99779.16;5004148;28;20065;-71
2023/09/20 05:04:40;;;;;;;0.20;0.20;;;;;;;14.54;66.76;99782.94;5001976;28;20548;-68
2023/09/20 05:07:07;;;;;;;0.30;0.30;;;;;;;14.61;66.90;99786.13;4999032;28;20655;-69
2023/09/20 05:09:37;;;;;;;0.47;0.30;;;;;;;14.69;66.11;99787.38;4975125;28;20516;-69
2023/09/20 05:12:09;;;;;;;0.20;0.20;;;;;;;14.78;66.32;99793.81;4972812;28;20050;-69
2023/09/20 05:14:36;;;;;;;0.20;0.20;;;;;;;14.83;65.71;99787.41;4970221;28;20050;-68
2023/09/20 05:17:04;;;;;;;0.20;0.20;;;;;;;14.91;65.68;99789.47;4997703;28;20525;-68
2023/09/20 05:19:31;;;;;;;0.30;0.30;;;;;;;14.97;65.23;99782.75;4984343;28;20038;-69
2023/09/20 05:21:58;;;;;;;0.30;0.30;;;;;;;15.05;64.75;99788.63;5002143;28;20429;-69
2023/09/20 05:24:25;;;;;;;0.30;0.30;;;;;;;15.14;64.83;99795.91;4983051;28;20408;-69
2023/09/20 05:26:51;;;;;;;;;;;;;;;15.21;64.58;99789.16;4996409;28;20043;-69
2023/09/20 05:29:19;;;;;;;0.20;0.20;;;;;;;15.30;64.11;99781.84;5001298;28;19931;-69
2023/09/20 05:31:46;;;;;;;0.30;0.30;;;;;;;15.38;63.80;99792.13;4999330;28;20513;-69
2023/09/20 05:34:12;;;;;;;0.30;0.30;;;;;;;15.55;63.40;99790.66;4997429;28;20607;-70
2023/09/20 05:36:38;;;;;;;0.30;0.30;;;;;;;15.69;62.21;99788.69;5000105;28;20053;-71
2023/09/20 05:39:06;;;;;;;0.30;0.30;;;;;;;15.83;61.96;99791.41;5002625;28;20050;-71
2023/09/20 05:41:34;;;;;;;0.25;0.25;;;;;;;15.98;61.19;99784.78;4999183;28;20312;-70
2023/09/20 05:44:00;;;;;;;0.20;0.20;;;;;;;16.10;60.58;99786.16;4971400;28;20056;-71
2023/09/20 05:46:28;;;;;;;0.30;0.30;;;;;;;16.23;59.94;99781.72;4998264;28;20068;-71
2023/09/20 05:48:54;;;;;;;0.30;0.30;;;;;;;16.36;60.08;99785.53;5005411;28;20041;-70
2023/09/20 05:51:21;;;;;;;0.30;0.30;;;;;;;16.47;58.92;99788.84;5005904;28;20116;-69
2023/09/20 05:53:48;;;;;;;0.47;0.32;;;;;;;16.52;59.09;99791.50;4997941;28;20394;-70
2023/09/20 05:56:14;;;;;;;0.30;0.30;;;;;;;16.64;58.46;99804.72;5006882;28;20050;-71
2023/09/20 05:58:42;;;;;;;;;;;;;;;16.72;57.83;99788.19;5000193;28;20135;-69
2023/09/20 06:01:09;;;;;;;;;;;;;;;16.84;57.59;99789.56;5001857;28;19925;-68
2023/09/20 06:03:39;;;;;;;0.20;0.20;;;;;;;16.88;56.57;99804.34;5001694;28;20409;-69
2023/09/20 06:06:07;;;;;;;0.30;0.30;;;;;;;16.92;56.58;99794.28;5002398;28;20054;-70
2023/09/20 06:08:36;;;;;;;0.40;0.40;;;;;;;16.99;56.49;99789.16;4988060;28;20065;-70
2023/09/20 06:11:04;;;;;;;0.30;0.30;;;;;;;17.08;56.47;99782.84;5001453;28;20133;-69
2023/09/20 06:13:32;;;;;;;0.30;0.30;;;;;;;17.22;56.34;99788.28;5004203;28;20052;-70
2023/09/20 06:15:59;;;;;;;0.30;0.30;;;;;;;17.28;55.38;99782.28;5008801;28;20109;-69
2023/09/20 06:18:26;;;;;;;0.35;0.35;;;;;;;17.45;54.83;99808.34;5003968;28;20128;-73
2023/09/20 06:20:55;;;;;;;0.30;0.30;;;;;;;17.41;54.36;99793.53;5004624;28;20073;-71
2023/09/20 06:23:26;;;;;;;0.30;0.30;;;;;;;17.41;54.37;99794.34;5007184;28;20403;-69
2023/09/20 06:25:54;;;;;;;0.30;0.30;;;;;;;17.47;54.77;99796.94;4998026;28;20038;-70
2023/09/20 06:28:22;;;;;;;0.40;0.40;;;;;;;17.64;54.46;99779.59;5005252;28;20053;-69
2023/09/20 06:30:48;;;;;;;0.30;0.30;;;;;;;17.73;53.72;99791.50;5001907;28;20229;-69
2023/09/20 06:33:16;;;;;;;0.30;0.30;;;;;;;17.72;53.47;99763.00;5006950;28;20045;-71
2023/09/20 06:35:45;;;;;;;;;;;;;;;18.03;53.54;99777.03;5007262;28;20108;-70
2023/09/20 06:38:15;;;;;;;0.30;0.30;;;;;;;18.12;52.45;99784.19;5004646;28;19968;-69
2023/09/20 06:40:41;;;;;;;0.30;0.30;;;;;;;18.11;52.41;99773.47;5008605;28;20050;-71
2023/09/20 06:43:08;;;;;;;0.40;0.40;;;;;;;18.11;52.09;99777.03;5000198;28;20133;-71
2023/09/20 06:45:35;;;;;;;0.30;0.30;;;;;;;18.30;51.34;99786.16;4981100;28;20103;-71
2023/09/20 06:48:03;;;;;;;0.30;0.30;;;;;;;18.38;51.03;99796.38;4999536;28;20049;-71
2023/09/20 06:50:30;;;;;;;0.30;0.30;;;;;;;18.44;51.34;99800.63;5003886;28;20613;-70
2023/09/20 06:52:58;;;;;;;0.40;0.40;;;;;;;18.55;50.78;99803.84;4981966;28;20073;-69
2023/09/20 06:55:27;;;;;;;0.30;0.30;;;;;;;18.70;50.36;99810.81;5003596;28;20045;-69
2023/09/20 06:57:54;;;;;;;0.30;0.30;;;;;;;18.89;49.92;99801.31;5005172;28;20096;-70
2023/09/20 07:00:25;;;;;;;;;;;;;;;19.14;49.78;99802.41;4997622;28;20072;-69
2023/09/20 07:03:05;;;;;;;0.30;0.30;;;;;;;19.37;49.08;99811.25;4996086;28;20045;-69
2023/09/20 07:05:33;;;;;;;0.30;0.30;;;;;;;19.58;48.56;99790.25;4982973;28;20980;-69
2023/09/20 07:08:00;;;;;;;0.30;0.30;;;;;;;19.83;47.99;99803.13;5001075;28;20539;-69
2023/09/20 07:10:33;;;;;;;0.40;0.40;;;;;;;19.95;47.90;99799.63;4995889;28;20050;-70
2023/09/20 07:13:05;;;;;;;0.30;0.30;;;;;;;20.20;47.44;99796.16;5001279;28;20136;-71
2023/09/20 07:15:34;;;;;;;0.30;0.30;;;;;;;20.45;47.22;99794.31;5000353;28;20153;-70
2023/09/20 07:18:23;;;;;;;0.30;0.30;;;;;;;20.61;46.40;99790.91;5004006;28;20307;-70
2023/09/20 07:20:54;;;;;;;0.30;0.30;;;;;;;20.79;45.69;99791.50;5001462;28;20104;-69
2023/09/20 07:23:23;;;;;;;0.30;0.30;;;;;;;20.82;45.38;99797.22;4989543;28;20145;-69
2023/09/20 07:25:55;;;;;;;0.30;0.30;;;;;;;20.89;45.51;99804.16;5005409;28;20527;-70
2023/09/20 07:28:24;;;;;;;0.38;0.38;;;;;;;21.13;45.13;99803.38;5004248;28;20049;-71
2023/09/20 07:30:50;;;;;;;0.30;0.30;;;;;;;21.24;44.48;99810.09;4997606;28;20088;-71
2023/09/20 07:33:23;;;;;;;0.40;0.40;;;;;;;21.46;43.86;99798.88;4991812;28;20046;-71
2023/09/20 07:35:58;;;;;;;0.40;0.40;;;;;;;21.67;43.19;99801.53;4999167;28;20108;-69
2023/09/20 07:38:29;;;;;;;0.40;0.40;;;;;;;21.94;42.90;99799.97;4999785;28;20050;-69
2023/09/20 07:41:17;;;;;;;0.30;0.30;;;;;;;22.30;42.21;99797.41;4999636;28;20543;-71
2023/09/20 07:43:54;;;;;;;0.40;0.40;;;;;;;22.45;41.94;99803.38;5000798;28;20050;-70
2023/09/20 07:46:23;;;;;;;0.40;0.40;;;;;;;22.61;41.77;99795.06;5002039;28;20160;-71
2023/09/20 07:48:52;;;;;;;0.40;0.40;;;;;;;22.93;40.60;99798.72;4994195;28;20047;-71
2023/09/20 07:51:20;;;;;;;0.40;0.40;;;;;;;23.13;40.19;99811.94;4997483;28;20042;-72
2023/09/20 07:53:53;;;;;;;0.40;0.40;;;;;;;23.35;39.90;99811.31;4984418;28;20107;-70
2023/09/20 07:56:22;;;;;;;0.40;0.40;;;;;;;23.54;39.42;99811.75;5001982;28;20038;-69
2023/09/20 07:58:48;;;;;;;0.40;0.40;;;;;;;23.67;39.10;99821.63;4998502;28;20042;-71
2023/09/20 08:01:18;;;;;;;0.40;0.40;;;;;;;23.72;39.11;99807.38;5003405;28;20552;-69
2023/09/20 08:03:54;;;;;;;0.40;0.40;;;;;;;23.92;38.43;99805.44;5002069;28;20454;-69
2023/09/20 08:06:21;;;;;;;0.40;0.40;;;;;;;24.13;38.42;99807.09;4976876;28;20050;-69
2023/09/20 08:08:48;;;;;;;0.40;0.40;;;;;;;24.42;37.89;99807.66;4998445;28;20077;-69
2023/09/20 08:11:14;;;;;;;0.40;0.40;;;;;;;24.53;37.44;99807.88;4998152;28;20053;-71
2023/09/20 08:13:42;;;;;;;0.40;0.40;;;;;;;24.58;37.52;99806.75;4995050;28;20057;-71
2023/09/20 08:16:12;;;;;;;0.40;0.40;;;;;;;24.31;36.96;99810.25;4996086;28;20545;-68
2023/09/20 08:21:29;;;;;;;0.40;0.40;;;;;;;23.53;38.59;99816.50;4998155;28;20072;-69
2023/09/20 09:00:25;;;;;;;0.45;0.45;;;;;;;24.88;35.23;99792.94;4981222;28;20038;-69
2023/09/20 09:02:54;;;;;;;0.40;0.40;;;;;;;24.78;35.60;99779.59;4996248;28;20068;-69
2023/09/20 09:05:23;;;;;;;0.50;0.50;;;;;;;24.83;35.54;99789.69;5001380;28;20057;-69
2023/09/20 09:07:50;;;;;;;0.50;0.50;;;;;;;24.96;35.49;99790.28;5000949;28;20039;-71
2023/09/20 09:10:16;;;;;;;0.50;0.50;;;;;;;24.95;35.04;99778.28;5011051;28;20054;-69
2023/09/20 09:12:43;;;;;;;0.55;0.55;;;;;;;24.97;35.28;99777.94;4995625;28;20034;-69
2023/09/20 09:15:11;;;;;;;0.60;0.60;;;;;;;25.10;35.44;99781.31;5009650;28;20056;-70
2023/09/20 09:17:39;;;;;;;0.50;0.50;;;;;;;25.41;35.19;99777.44;5000324;28;20069;-69
2023/09/20 09:20:11;;;;;;;0.52;0.52;;;;;;;25.51;34.83;99773.19;4997314;28;20055;-69
2023/09/20 09:22:38;;;;;;;0.43;0.43;;;;;;;25.55;34.46;99776.84;4996491;28;20038;-68
2023/09/20 09:25:11;;;;;;;0.60;0.60;;;;;;;25.45;34.63;99780.28;5002124;28;20045;-69
2023/09/20 09:27:39;;;;;;;0.60;0.60;;;;;;;25.54;34.14;99768.84;5002293;28;20103;-70
2023/09/20 09:30:08;;;;;;;0.60;0.60;;;;;;;25.45;34.28;99772.69;4986182;28;20733;-68
2023/09/20 09:32:38;;;;;;;0.50;0.50;;;;;;;25.41;34.43;99774.63;4996780;28;20041;-69
2023/09/20 09:35:07;;;;;;;0.60;0.60;;;;;;;25.37;34.71;99778.56;4995276;28;20041;-69
2023/09/20 09:37:35;;;;;;;0.60;0.60;;;;;;;25.44;34.04;99790.66;4996785;28;20517;-69
2023/09/20 09:40:03;;;;;;;0.60;0.60;;;;;;;25.55;33.84;99770.47;4999189;28;20049;-71
2023/09/20 09:42:32;;;;;;;0.60;0.60;;;;;;;25.82;33.69;99767.59;4977757;28;20058;-70
2023/09/20 09:45:01;;;;;;;0.60;0.60;;;;;;;26.21;33.08;99763.69;4979690;28;20107;-71
2023/09/20 09:47:30;;;;;;;0.60;0.60;;;;;;;26.65;31.87;99759.38;4998662;28;20048;-69
2023/09/20 09:49:59;;;;;;;0.60;0.60;;;;;;;27.07;31.60;99751.75;4993139;28;20038;-69
2023/09/20 09:52:28;;;;;;;0.60;0.60;;;;;;;27.22;30.85;99783.50;4992729;28;20352;-69
2023/09/20 09:54:55;;;;;;;0.65;0.65;;;;;;;27.29;30.85;99767.53;4971796;28;20070;-69
2023/09/20 09:57:23;;;;;;;0.60;0.60;;;;;;;27.56;29.77;99769.34;4993880;28;20042;-71
2023/09/20 09:59:51;;;;;;;0.63;0.63;;;;;;;27.89;28.70;99764.69;4991524;28;20113;-71
2023/09/20 10:02:19;;;;;;;0.70;0.70;;;;;;;28.00;28.86;99773.94;4995399;28;20488;-71
2023/09/20 10:04:52;;;;;;;0.60;0.60;;;;;;;28.25;28.84;99758.41;5011189;28;20054;-70
2023/09/20 10:07:22;;;;;;;0.68;0.68;;;;;;;28.84;27.90;99769.41;4996512;28;20050;-70
2023/09/20 10:09:52;;;;;;;0.60;0.60;;;;;;;29.09;26.89;99762.16;4973935;28;20125;-70
2023/09/20 10:12:22;;;;;;;0.60;0.60;;;;;;;29.25;26.85;99758.91;4994609;28;20088;-69
2023/09/20 10:14:48;;;;;;;0.70;0.70;;;;;;;29.79;26.71;99749.56;4991910;28;20038;-68
2023/09/20 10:17:20;;;;;;;0.70;0.70;;;;;;;29.52;26.12;99739.59;5002814;28;20059;-69
2023/09/20 10:19:49;;;;;;;0.60;0.60;;;;;;;28.93;26.96;99759.75;4998227;28;20108;-67
2023/09/20 10:22:19;;;;;;;0.70;0.70;;;;;;;29.23;26.72;99750.91;4974553;28;20053;-69
2023/09/20 10:24:54;;;;;;;0.60;0.60;;;;;;;29.74;26.78;99749.97;4975815;28;20042;-69
2023/09/20 10:27:22;;;;;;;0.70;0.70;;;;;;;30.19;25.93;99724.84;4977902;28;20509;-68
2023/09/20 10:29:59;;;;;;;0.60;0.60;;;;;;;30.19;25.59;99764.28;4974891;28;20141;-69
2023/09/20 10:32:28;;;;;;;;;;;;;;;30.18;25.71;99737.31;4993482;28;20056;-69
2023/09/20 10:35:20;;;;;;;0.60;0.60;;;;;;;30.58;25.17;99736.28;4976716;28;20075;-69
2023/09/20 10:38:21;;;;;;;0.60;0.60;;;;;;;30.74;24.62;99730.13;4988051;28;20088;-70
2023/09/20 10:41:02;;;;;;;0.70;0.70;;;;;;;30.66;24.94;99749.94;4995829;28;20345;-69
2023/09/20 10:43:48;;;;;;;0.68;0.68;;;;;;;30.14;25.32;99750.66;5001149;28;20137;-69
2023/09/20 10:46:17;;;;;;;;;;;;;;;29.72;26.24;99765.28;4996292;28;20053;-71
2023/09/20 10:48:49;;;;;;;0.80;0.80;;;;;;;29.54;26.48;99748.44;4993359;28;19933;-69
2023/09/20 10:51:41;;;;;;;0.90;0.90;;;;;;;30.06;25.82;99744.25;4997987;28;20034;-70
2023/09/20 10:54:18;;;;;;;0.90;0.90;;;;;;;30.42;25.05;99734.78;4994999;28;20048;-72
2023/09/20 10:57:05;;;;;;;1.00;1.00;;;;;;;30.37;24.35;99726.75;4992073;28;20054;-70
2023/09/20 10:59:34;;;;;;;1.15;1.10;;;;;;;29.89;24.42;99743.06;4990643;28;20245;-71
2023/09/20 11:02:05;;;;;;;1.17;1.08;;;;;;;29.48;25.40;99741.59;4995179;28;20046;-68
2023/09/20 11:04:33;;;;;;;1.20;1.10;;;;;;;28.76;25.89;99750.09;4988109;28;20154;-69
2023/09/20 11:07:02;;;;;;;0.68;0.68;;;;;;;29.10;26.04;99742.03;4973725;28;20054;-70
2023/09/20 11:09:38;;;;;;;1.00;1.00;;;;;;;28.81;25.90;99728.03;4996070;28;20093;-70
2023/09/20 11:12:08;;;;;;;1.00;1.00;;;;;;;29.50;25.75;99742.00;5000791;28;20532;-70
2023/09/20 11:14:36;;;;;;;1.10;1.10;;;;;;;29.69;25.37;99752.00;5004064;28;20061;-70
2023/09/20 11:17:03;;;;;;;1.20;1.20;;;;;;;29.17;25.83;99687.75;5004036;28;20037;-69
2023/09/20 11:19:30;;;;;;;1.20;1.20;;;;;;;29.95;24.58;99735.00;5006904;28;20049;-70
2023/09/20 11:21:57;;;;;;;1.25;1.20;;;;;;;30.58;24.42;99727.81;5009259;28;20054;-72
2023/09/20 11:24:23;;;;;;;;;;;;;;;30.92;23.75;99727.97;5009766;28;20579;-69
2023/09/20 11:26:53;;;;;;;1.20;1.20;;;;;;;31.48;23.17;99724.22;5010262;28;19984;-69
2023/09/20 11:29:21;;;;;;;1.30;1.20;;;;;;;31.95;22.13;99734.16;5006125;28;20421;-69
2023/09/20 11:31:50;;;;;;;1.17;1.17;;;;;;;31.31;22.94;99725.22;5012408;28;20050;-70
2023/09/20 11:34:19;;;;;;;1.10;1.10;;;;;;;31.54;22.84;99719.72;4975754;28;20046;-71
2023/09/20 11:36:53;;;;;;;1.30;1.20;;;;;;;31.89;22.39;99733.84;4999099;28;20509;-69
2023/09/20 11:39:29;;;;;;;1.30;1.20;;;;;;;31.27;22.32;99762.75;4985859;28;20045;-70
2023/09/20 11:42:04;;;;;;;1.30;1.20;;;;;;;30.62;23.08;99739.88;4996222;28;20049;-71
2023/09/20 11:44:35;;;;;;;1.20;1.20;;;;;;;30.36;23.73;99725.94;5009376;28;20906;-69
2023/09/20 11:47:03;;;;;;;1.20;1.20;;;;;;;30.33;23.93;99763.44;5009073;28;20540;-69
2023/09/20 11:49:29;;;;;;;1.30;1.20;;;;;;;30.22;23.53;99718.41;5003750;28;20525;-69
2023/09/20 11:51:59;;;;;;;1.30;1.20;;;;;;;30.22;23.92;99746.59;5008419;28;20434;-69
2023/09/20 11:54:28;;;;;;;0.60;0.60;;;;;;;30.27;23.36;99717.13;5007281;28;20046;-69
2023/09/20 11:56:59;;;;;;;1.30;1.20;;;;;;;29.72;24.17;99725.03;5005879;28;20052;-73
2023/09/20 11:59:26;;;;;;;1.25;1.20;;;;;;;29.95;23.91;99732.19;4989293;28;20049;-70
2023/09/20 12:01:54;;;;;;;1.30;1.20;;;;;;;30.07;23.47;99717.66;5003310;28;20109;-69
2023/09/20 12:04:21;;;;;;;1.30;1.20;;;;;;;30.04;24.02;99720.50;5003169;28;20065;-70
2023/09/20 12:06:47;;;;;;;1.20;1.20;;;;;;;29.74;23.71;99719.00;4985448;28;20041;-71
2023/09/20 12:09:14;;;;;;;1.30;1.20;;;;;;;30.17;23.73;99699.06;5004837;28;20054;-71
2023/09/20 12:11:43;;;;;;;1.30;1.20;;;;;;;30.91;22.53;99689.69;5004222;28;20517;-72
2023/09/20 12:14:13;;;;;;;1.30;1.20;;;;;;;30.84;22.75;99696.22;4988706;28;20069;-72
2023/09/20 12:16:39;;;;;;;1.30;1.20;;;;;;;31.05;22.43;99691.56;5002076;28;20476;-72
2023/09/20 12:19:08;;;;;;;1.30;1.20;;;;;;;31.56;22.43;99691.03;5000741;28;20048;-72
2023/09/20 12:21:34;;;;;;;1.30;1.20;;;;;;;31.48;22.06;99684.66;5008241;28;20049;-70
2023/09/20 12:24:01;;;;;;;1.40;1.30;;;;;;;31.52;22.24;99693.09;4999402;28;20465;-71
2023/09/20 12:26:28;;;;;;;1.30;1.20;;;;;;;31.76;22.04;99704.50;4994401;28;20127;-71